Soul City, North Carolina
Current Conditions -  °F | °C
As of 7:35 AM on Monday 26 Jan 2015 (Local Time) from KHNZ Reporting Station
Moderate Rain Moderate Rain  
Wind Chill: 39°   Ceiling: 3700
Heat Index: 39°   Visibility: 7mi
Dew Point: 37°   Wind: 0mph
Humidity: 91%   Direction: NA
Pressure: 29.69"   Gusts: NA
Location:  36.4679°N, 78.2938°W
Report Text: KHNZ 261235Z AUTO 00000KT 7SM RA OVC037 04/03 A2969 RMK AO2 T00380025
Loading
Personal Weather Stations






























Interactive Weather Map New forecast layout! Learn more

10-Day Weather Forecast

Advertisements
Track Severe Weather on mobile